createdAt,value
2023-04-23T00:01:18.871Z,6.46
2023-04-23T00:07:13.911Z,6.14
2023-04-23T00:10:03.821Z,6.20
2023-04-23T00:12:42.285Z,6.35
2023-04-23T00:15:09.960Z,6.29
2023-04-23T00:17:36.936Z,6.35
2023-04-23T00:20:04.245Z,6.22
2023-04-23T00:22:31.236Z,6.31
2023-04-23T00:24:58.153Z,6.32
2023-04-23T00:27:25.021Z,6.31
2023-04-23T00:29:51.994Z,6.25
2023-04-23T00:32:19.260Z,6.14
2023-04-23T00:34:49.041Z,6.05
2023-04-23T00:37:16.600Z,5.86
2023-04-23T00:39:44.254Z,5.83
2023-04-23T00:42:12.797Z,5.90
2023-04-23T00:44:41.150Z,5.96
2023-04-23T00:47:08.343Z,5.96
2023-04-23T00:49:35.968Z,6.01
2023-04-23T00:52:04.022Z,5.95
2023-04-23T00:54:31.438Z,5.71
2023-04-23T00:56:58.851Z,5.78
2023-04-23T00:59:27.222Z,5.71
2023-04-23T01:01:54.652Z,5.60
2023-04-23T01:04:50.174Z,5.46
2023-04-23T01:07:40.952Z,5.60
2023-04-23T01:10:31.095Z,5.64
2023-04-23T01:13:15.376Z,5.62
2023-04-23T01:16:02.790Z,5.59
2023-04-23T01:18:30.915Z,5.56
2023-04-23T01:20:57.896Z,5.61
2023-04-23T01:23:25.007Z,5.58
2023-04-23T01:25:52.115Z,5.56
2023-04-23T01:28:19.250Z,5.56
2023-04-23T01:30:48.123Z,5.49
2023-04-23T01:33:16.154Z,5.46
2023-04-23T01:35:44.386Z,5.49
2023-04-23T01:38:12.159Z,5.53
2023-04-23T01:40:39.257Z,5.55
2023-04-23T01:43:07.623Z,5.68
2023-04-23T01:45:36.457Z,5.66
2023-04-23T01:48:03.573Z,5.65
2023-04-23T01:50:30.830Z,5.73
2023-04-23T01:52:57.736Z,5.73
2023-04-23T01:55:24.793Z,5.69
2023-04-23T01:57:51.899Z,5.72
2023-04-23T02:00:19.202Z,5.74
2023-04-23T02:02:46.358Z,5.49
2023-04-23T02:05:16.892Z,5.67
2023-04-23T02:07:45.186Z,5.35
2023-04-23T02:10:12.764Z,5.60
2023-04-23T02:12:40.215Z,5.59
2023-04-23T02:15:08.921Z,5.55
2023-04-23T02:17:35.981Z,5.37
2023-04-23T02:20:03.549Z,5.34
2023-04-23T02:22:32.007Z,5.28
2023-04-23T02:25:00.131Z,5.23
2023-04-23T02:27:27.679Z,5.19
2023-04-23T02:29:54.729Z,5.12
2023-04-23T02:32:21.818Z,4.82
2023-04-23T02:34:48.946Z,5.10
2023-04-23T02:37:15.916Z,5.10
2023-04-23T02:39:42.849Z,5.06
2023-04-23T02:42:09.896Z,5.02
2023-04-23T02:44:36.860Z,5.05
2023-04-23T02:47:04.085Z,4.92
2023-04-23T02:49:31.077Z,4.85
2023-04-23T02:51:58.044Z,4.77
2023-04-23T02:54:25.264Z,4.80
2023-04-23T02:56:52.210Z,4.78
2023-04-23T02:59:19.414Z,4.78
2023-04-23T03:01:46.446Z,4.76
2023-04-23T03:04:13.453Z,4.75
2023-04-23T03:06:40.800Z,4.68
2023-04-23T03:09:07.727Z,4.65
2023-04-23T03:11:34.756Z,4.66
2023-04-23T03:14:01.728Z,4.65
2023-04-23T03:16:30.418Z,4.48
2023-04-23T03:18:57.983Z,4.57
2023-04-23T03:21:25.010Z,4.56
2023-04-23T03:23:51.927Z,4.55
2023-04-23T03:26:18.827Z,4.40
2023-04-23T03:28:45.758Z,4.24
2023-04-23T03:31:12.718Z,4.24
2023-04-23T03:33:39.667Z,4.25
2023-04-23T03:36:06.820Z,4.14
2023-04-23T03:38:33.759Z,4.22
2023-04-23T03:41:00.761Z,4.18
2023-04-23T03:43:28.129Z,4.28
2023-04-23T03:45:55.057Z,4.30
2023-04-23T03:48:21.971Z,4.23
2023-04-23T03:50:49.103Z,4.31
2023-04-23T03:53:17.909Z,4.22
2023-04-23T03:55:45.099Z,4.38
2023-04-23T03:58:12.100Z,4.33
2023-04-23T04:00:38.981Z,4.33
2023-04-23T04:03:06.133Z,4.31
2023-04-23T04:05:33.174Z,4.35
2023-04-23T04:08:00.147Z,4.37
2023-04-23T04:10:27.119Z,4.40
2023-04-23T04:12:55.590Z,4.45
2023-04-23T04:15:22.702Z,4.53
2023-04-23T04:17:49.905Z,4.63
2023-04-23T04:20:16.919Z,4.61
2023-04-23T04:22:44.011Z,4.68
2023-04-23T04:25:10.955Z,4.82
2023-04-23T04:27:39.364Z,4.90
2023-04-23T04:30:07.056Z,4.98
2023-04-23T04:32:34.583Z,5.06
2023-04-23T04:35:02.879Z,4.99
2023-04-23T04:37:29.846Z,5.17
2023-04-23T04:39:57.326Z,5.26
2023-04-23T04:42:25.690Z,5.37
2023-04-23T04:44:53.192Z,5.53
2023-04-23T04:47:20.193Z,5.65
2023-04-23T04:49:47.113Z,5.79
2023-04-23T04:52:13.977Z,5.90
2023-04-23T04:54:42.181Z,6.09
2023-04-23T04:57:09.769Z,6.14
2023-04-23T04:59:37.090Z,6.37
2023-04-23T05:02:04.196Z,6.53
2023-04-23T05:04:31.196Z,6.68
2023-04-23T05:06:58.126Z,6.75
2023-04-23T05:09:25.939Z,7.57
2023-04-23T05:11:53.008Z,8.26
2023-04-23T05:14:19.985Z,9.05
2023-04-23T05:16:46.974Z,9.89
2023-04-23T05:19:13.913Z,10.52
2023-04-23T05:21:40.876Z,11.40
2023-04-23T05:24:07.914Z,12.16
2023-04-23T05:26:34.884Z,12.77
2023-04-23T05:29:02.418Z,13.19
2023-04-23T05:31:29.567Z,13.90
2023-04-23T05:33:56.587Z,14.37
2023-04-23T05:36:23.472Z,14.73
2023-04-23T05:38:50.383Z,15.16
2023-04-23T05:41:17.353Z,15.67
2023-04-23T05:43:44.410Z,16.20
2023-04-23T05:46:11.356Z,16.68
2023-04-23T05:48:38.339Z,17.02
2023-04-23T05:51:05.644Z,17.31
2023-04-23T05:53:32.667Z,17.75
2023-04-23T05:55:59.544Z,17.93
2023-04-23T05:58:26.501Z,18.19
2023-04-23T06:00:53.978Z,18.32
2023-04-23T06:03:21.284Z,18.66
2023-04-23T06:05:48.474Z,18.40
2023-04-23T06:08:15.566Z,19.00
2023-04-23T06:10:42.640Z,19.29
2023-04-23T06:13:11.460Z,19.57
2023-04-23T06:15:38.906Z,19.62
2023-04-23T06:18:06.448Z,19.83
2023-04-23T06:20:33.431Z,20.00
2023-04-23T06:23:00.431Z,20.00
2023-04-23T06:25:27.424Z,20.29
2023-04-23T06:27:54.361Z,20.26
2023-04-23T06:30:21.410Z,19.98
2023-04-23T06:32:48.744Z,20.30
2023-04-23T06:35:16.186Z,20.30
2023-04-23T06:37:43.486Z,20.41
2023-04-23T06:40:11.596Z,20.49
2023-04-23T06:42:39.591Z,20.39
2023-04-23T06:45:07.669Z,20.40
2023-04-23T06:47:35.891Z,20.82
2023-04-23T06:50:03.934Z,21.06
2023-04-23T06:52:31.132Z,21.40
2023-04-23T06:54:58.040Z,21.58
2023-04-23T06:57:24.970Z,21.84
2023-04-23T06:59:52.209Z,21.82
2023-04-23T07:02:19.288Z,21.75
2023-04-23T07:04:47.046Z,21.73
2023-04-23T07:07:14.380Z,21.88
2023-04-23T07:09:41.672Z,21.91
2023-04-23T07:12:09.044Z,21.71
2023-04-23T07:14:36.010Z,21.49
2023-04-23T07:17:03.454Z,21.33
2023-04-23T07:19:30.415Z,21.21
2023-04-23T07:21:57.338Z,21.25
2023-04-23T07:24:26.643Z,21.10
2023-04-23T07:26:53.943Z,21.00
2023-04-23T07:29:21.237Z,20.77
2023-04-23T07:31:51.197Z,20.57
2023-04-23T07:34:18.255Z,20.16
2023-04-23T07:36:45.245Z,20.25
2023-04-23T07:39:12.378Z,20.18
2023-04-23T07:41:39.442Z,20.26
2023-04-23T07:44:07.048Z,20.22
2023-04-23T07:46:34.088Z,20.44
2023-04-23T07:49:01.124Z,20.61
2023-04-23T07:51:28.773Z,20.74
2023-04-23T07:53:56.689Z,20.68
2023-04-23T07:56:24.910Z,20.77
2023-04-23T07:58:54.392Z,20.72
2023-04-23T08:01:22.029Z,20.78
2023-04-23T08:03:49.128Z,20.78
2023-04-23T08:06:16.407Z,20.77
2023-04-23T08:08:43.326Z,20.92
2023-04-23T08:11:11.320Z,20.83
2023-04-23T08:13:38.404Z,21.06
2023-04-23T08:16:05.575Z,20.97
2023-04-23T08:18:32.636Z,20.94
2023-04-23T08:20:59.825Z,21.21
2023-04-23T08:23:26.776Z,21.27
2023-04-23T08:25:53.746Z,21.16
2023-04-23T08:28:20.735Z,21.18
2023-04-23T08:30:47.669Z,21.08
2023-04-23T08:33:15.406Z,21.05
2023-04-23T08:35:42.389Z,21.02
2023-04-23T08:38:09.606Z,20.99
2023-04-23T08:40:38.362Z,21.13
2023-04-23T08:43:17.332Z,21.12
2023-04-23T08:45:48.000Z,21.16
2023-04-23T08:48:15.455Z,21.31
2023-04-23T08:50:43.686Z,21.46
2023-04-23T08:53:11.418Z,21.02
2023-04-23T08:55:38.933Z,21.38
2023-04-23T08:58:06.906Z,21.46
2023-04-23T09:00:36.758Z,21.20
2023-04-23T09:03:05.272Z,21.30
2023-04-23T09:05:32.796Z,21.31
2023-04-23T09:08:00.150Z,21.36
2023-04-23T09:10:27.292Z,21.36
2023-04-23T09:12:54.250Z,21.51
2023-04-23T09:15:21.280Z,21.46
2023-04-23T09:17:48.644Z,21.45
2023-04-23T09:20:15.923Z,21.49
2023-04-23T09:22:52.817Z,21.74
2023-04-23T09:25:21.924Z,21.72
2023-04-23T09:27:51.070Z,21.83
2023-04-23T09:30:19.341Z,21.83
2023-04-23T09:32:47.269Z,21.78
2023-04-23T09:35:16.509Z,21.83
2023-04-23T09:37:49.024Z,21.93
2023-04-23T09:40:18.909Z,21.99
2023-04-23T09:42:50.275Z,22.05
2023-04-23T09:45:17.711Z,22.05
2023-04-23T09:47:53.333Z,22.15
2023-04-23T09:50:33.001Z,22.27
2023-04-23T09:53:00.778Z,22.15
2023-04-23T09:55:31.032Z,22.13
2023-04-23T09:57:58.860Z,22.29
2023-04-23T10:00:29.628Z,22.13
2023-04-23T10:02:56.680Z,22.19
2023-04-23T10:05:29.432Z,22.30
2023-04-23T10:08:06.777Z,22.31
2023-04-23T10:10:40.638Z,22.52
2023-04-23T10:13:20.206Z,22.63
2023-04-23T10:15:48.461Z,22.75
2023-04-23T10:18:15.491Z,22.50
2023-04-23T10:20:43.290Z,22.63
2023-04-23T10:23:13.446Z,22.78
2023-04-23T10:25:41.837Z,22.84
2023-04-23T10:28:12.044Z,23.03
2023-04-23T10:30:40.186Z,22.76
2023-04-23T10:33:15.690Z,22.78
2023-04-23T10:35:48.644Z,22.82
2023-04-23T10:38:16.429Z,22.88
2023-04-23T10:40:47.075Z,22.81
2023-04-23T10:43:14.432Z,22.94
2023-04-23T10:45:41.356Z,23.08
2023-04-23T10:48:09.392Z,23.15
2023-04-23T10:50:37.826Z,23.09
2023-04-23T10:53:05.599Z,23.11
2023-04-23T10:55:33.335Z,23.27
2023-04-23T10:58:08.145Z,23.13
2023-04-23T11:00:46.946Z,22.97
2023-04-23T11:03:32.580Z,22.95
2023-04-23T11:06:04.031Z,23.17
2023-04-23T11:08:34.727Z,22.92
2023-04-23T11:11:03.113Z,22.69
2023-04-23T11:13:30.670Z,22.88
2023-04-23T11:16:22.894Z,22.98
2023-04-23T11:19:12.686Z,23.14
2023-04-23T11:21:59.130Z,23.16
2023-04-23T11:24:30.937Z,23.21
2023-04-23T11:26:58.970Z,23.15
2023-04-23T11:29:28.046Z,23.10
2023-04-23T11:34:26.492Z,23.03
2023-04-23T11:36:54.956Z,23.22
2023-04-23T11:39:26.745Z,23.30
2023-04-23T11:41:54.411Z,23.33
2023-04-23T11:44:22.306Z,23.37
2023-04-23T11:46:50.497Z,23.38
2023-04-23T11:49:19.157Z,23.14
2023-04-23T11:51:47.074Z,22.87
2023-04-23T11:54:15.080Z,22.82
2023-04-23T11:56:42.875Z,23.01
2023-04-23T11:59:10.117Z,22.89
2023-04-23T12:01:48.440Z,22.95
2023-04-23T12:04:20.912Z,23.24
2023-04-23T12:06:49.207Z,22.59
2023-04-23T12:09:17.820Z,22.41
2023-04-23T12:11:46.154Z,22.73
2023-04-23T12:14:15.647Z,22.81
2023-04-23T12:16:44.877Z,23.12
2023-04-23T12:19:15.948Z,23.13
2023-04-23T12:21:56.226Z,23.34
2023-04-23T12:24:29.450Z,23.26
2023-04-23T12:27:03.170Z,23.25
2023-04-23T12:29:32.481Z,23.07
2023-04-23T12:32:00.721Z,23.23
2023-04-23T12:34:27.777Z,23.45
2023-04-23T12:36:56.565Z,23.38
2023-04-23T12:39:34.065Z,23.36
2023-04-23T12:42:05.598Z,23.41
2023-04-23T12:44:36.558Z,23.54
2023-04-23T12:47:08.645Z,23.68
2023-04-23T12:49:37.149Z,23.40
2023-04-23T12:52:05.443Z,23.44
2023-04-23T12:54:40.730Z,23.34
2023-04-23T12:57:11.659Z,23.37
2023-04-23T12:59:39.500Z,23.31
2023-04-23T13:02:07.949Z,23.05
2023-04-23T13:04:37.028Z,23.16
2023-04-23T13:07:04.190Z,22.97
2023-04-23T13:12:13.581Z,22.45
2023-04-23T13:14:40.640Z,22.54
2023-04-23T13:17:07.731Z,22.44
2023-04-23T13:19:35.734Z,22.56
2023-04-23T13:22:04.017Z,22.83
2023-04-23T13:24:31.178Z,22.96
2023-04-23T13:26:58.161Z,23.01
2023-04-23T13:29:27.552Z,23.05
2023-04-23T13:31:58.407Z,23.29
2023-04-23T13:34:25.538Z,23.53
2023-04-23T13:36:52.585Z,23.74
2023-04-23T13:39:20.496Z,23.72
2023-04-23T13:41:59.220Z,23.86
2023-04-23T13:44:33.767Z,23.76
2023-04-23T13:47:00.806Z,23.70
2023-04-23T13:49:28.063Z,23.59
2023-04-23T13:51:59.178Z,23.43
2023-04-23T13:54:28.061Z,23.54
2023-04-23T13:56:58.428Z,23.50
2023-04-23T13:59:26.201Z,23.41
2023-04-23T14:01:53.176Z,23.12
2023-04-23T14:04:22.867Z,22.94
2023-04-23T14:06:50.277Z,22.86
2023-04-23T14:09:17.228Z,22.78
2023-04-23T14:11:44.168Z,22.69
2023-04-23T14:14:11.241Z,22.55
2023-04-23T14:16:38.197Z,22.61
2023-04-23T14:19:05.137Z,22.55
2023-04-23T14:21:32.163Z,22.30
2023-04-23T14:24:08.870Z,22.20
2023-04-23T14:26:48.000Z,22.08
2023-04-23T14:29:23.498Z,22.08
2023-04-23T14:31:50.826Z,21.99
2023-04-23T14:34:17.732Z,22.22
2023-04-23T14:36:46.794Z,22.14
2023-04-23T14:39:13.693Z,22.50
2023-04-23T14:41:41.223Z,22.42
2023-04-23T14:44:08.205Z,22.27
2023-04-23T14:46:35.155Z,22.30
2023-04-23T14:49:02.129Z,22.28
2023-04-23T14:51:29.138Z,22.22
2023-04-23T14:53:56.836Z,22.19
2023-04-23T14:56:24.186Z,22.02
2023-04-23T14:58:51.107Z,21.83
2023-04-23T15:01:18.237Z,21.67
2023-04-23T15:03:46.552Z,21.59
2023-04-23T15:06:13.755Z,21.49
2023-04-23T15:08:40.756Z,21.42
2023-04-23T15:11:13.616Z,21.42
2023-04-23T15:13:57.998Z,21.43
2023-04-23T15:19:06.833Z,21.42
2023-04-23T15:21:33.843Z,21.39
2023-04-23T15:24:00.726Z,21.35
2023-04-23T15:26:27.912Z,21.40
2023-04-23T15:28:54.862Z,21.30
2023-04-23T15:31:21.799Z,21.31
2023-04-23T15:33:48.746Z,21.33
2023-04-23T15:36:15.832Z,21.32
2023-04-23T15:38:42.860Z,21.36
2023-04-23T15:41:09.853Z,21.38
2023-04-23T15:43:36.770Z,21.45
2023-04-23T15:46:03.731Z,21.49
2023-04-23T15:48:30.690Z,21.63
2023-04-23T15:50:57.696Z,21.73
2023-04-23T15:53:24.680Z,21.62
2023-04-23T15:55:52.074Z,21.80
2023-04-23T15:58:19.909Z,21.78
2023-04-23T16:00:47.291Z,21.71
2023-04-23T16:03:15.398Z,21.73
2023-04-23T16:05:42.734Z,21.67
2023-04-23T16:08:10.097Z,21.54
2023-04-23T16:10:38.537Z,21.47
2023-04-23T16:13:06.618Z,21.05
2023-04-23T16:15:33.723Z,20.88
2023-04-23T16:18:00.985Z,21.01
2023-04-23T16:20:28.782Z,21.04
2023-04-23T16:22:56.037Z,21.13
2023-04-23T16:25:23.059Z,21.15
2023-04-23T16:27:50.224Z,21.15
2023-04-23T16:30:17.145Z,21.21
2023-04-23T16:32:44.161Z,21.31
2023-04-23T16:35:11.352Z,21.38
2023-04-23T16:37:38.328Z,21.42
2023-04-23T16:40:06.218Z,21.41
2023-04-23T16:42:33.263Z,21.36
2023-04-23T16:45:00.263Z,21.52
2023-04-23T16:47:27.306Z,21.61
2023-04-23T16:49:54.437Z,21.68
2023-04-23T16:52:21.656Z,21.61
2023-04-23T16:54:49.716Z,21.51
2023-04-23T16:57:17.670Z,21.39
2023-04-23T16:59:44.664Z,21.25
2023-04-23T17:02:11.834Z,21.07
2023-04-23T17:04:39.138Z,20.74
2023-04-23T17:07:06.398Z,20.52
2023-04-23T17:09:33.351Z,20.42
2023-04-23T17:12:00.398Z,20.15
2023-04-23T17:14:27.996Z,19.94
2023-04-23T17:16:56.411Z,19.87
2023-04-23T17:19:23.450Z,19.82
2023-04-23T17:21:54.271Z,19.74
2023-04-23T17:24:21.704Z,19.63
2023-04-23T17:26:49.456Z,19.51
2023-04-23T17:29:16.517Z,19.31
2023-04-23T17:31:43.696Z,19.00
2023-04-23T17:34:10.735Z,18.78
2023-04-23T17:36:37.660Z,18.46
2023-04-23T17:39:04.963Z,18.27
2023-04-23T17:41:31.848Z,18.19
2023-04-23T17:43:58.973Z,18.14
2023-04-23T17:46:26.003Z,18.03
2023-04-23T17:48:53.034Z,17.68
2023-04-23T17:51:19.998Z,17.60
2023-04-23T17:53:48.740Z,17.59
2023-04-23T17:56:16.414Z,17.51
2023-04-23T17:58:43.364Z,17.34
2023-04-23T18:01:10.947Z,17.37
2023-04-23T18:03:38.445Z,17.44
2023-04-23T18:06:06.105Z,17.55
2023-04-23T18:08:33.031Z,17.56
2023-04-23T18:11:00.915Z,17.58
2023-04-23T18:13:28.042Z,17.50
2023-04-23T18:15:55.053Z,17.48
2023-04-23T18:18:22.257Z,17.42
2023-04-23T18:20:49.344Z,17.15
2023-04-23T18:23:16.424Z,16.94
2023-04-23T18:25:43.385Z,16.88
2023-04-23T18:28:10.962Z,16.88
2023-04-23T18:30:38.444Z,16.89
2023-04-23T18:33:30.869Z,16.74
2023-04-23T18:36:45.057Z,16.62
2023-04-23T18:39:12.178Z,16.61
2023-04-23T18:41:39.070Z,16.57
2023-04-23T18:44:06.190Z,16.34
2023-04-23T18:46:33.451Z,16.36
2023-04-23T18:49:45.198Z,16.25
2023-04-23T18:52:12.346Z,16.09
2023-04-23T18:54:39.415Z,16.16
2023-04-23T18:57:06.763Z,16.37
2023-04-23T18:59:36.081Z,16.62
2023-04-23T19:02:04.909Z,16.78
2023-04-23T19:04:34.895Z,16.75
2023-04-23T19:07:02.145Z,16.87
2023-04-23T19:09:29.077Z,17.08
2023-04-23T19:11:56.387Z,17.07
2023-04-23T19:14:23.511Z,17.02
2023-04-23T19:16:51.399Z,17.00
2023-04-23T19:19:18.404Z,16.90
2023-04-23T19:21:45.291Z,16.85
2023-04-23T19:24:12.234Z,16.68
2023-04-23T19:26:39.219Z,16.58
2023-04-23T19:29:06.156Z,16.49
2023-04-23T19:31:33.311Z,16.24
2023-04-23T19:34:00.336Z,16.05
2023-04-23T19:36:27.257Z,15.97
2023-04-23T19:38:54.168Z,15.97
2023-04-23T19:41:21.095Z,15.87
2023-04-23T19:43:48.025Z,15.81
2023-04-23T19:46:14.990Z,15.62
2023-04-23T19:48:42.348Z,15.59
2023-04-23T19:51:09.446Z,15.51
2023-04-23T19:53:36.461Z,15.42
2023-04-23T19:56:03.421Z,15.43
2023-04-23T19:58:30.642Z,15.35
2023-04-23T20:00:57.767Z,15.01
2023-04-23T20:03:24.930Z,15.15
2023-04-23T20:05:52.664Z,15.17
2023-04-23T20:08:26.347Z,15.14
2023-04-23T20:10:54.188Z,15.09
2023-04-23T20:13:21.508Z,15.13
2023-04-23T20:15:50.190Z,15.07
2023-04-23T20:18:18.042Z,15.04
2023-04-23T20:20:45.042Z,14.95
2023-04-23T20:23:11.981Z,14.90
2023-04-23T20:25:38.960Z,14.82
2023-04-23T20:28:06.930Z,14.77
2023-04-23T20:30:33.810Z,14.65
2023-04-23T20:33:00.724Z,14.55
2023-04-23T20:35:28.906Z,14.40
2023-04-23T20:37:55.790Z,14.40
2023-04-23T20:40:22.933Z,14.13
2023-04-23T20:42:51.885Z,14.29
2023-04-23T20:45:19.633Z,14.25
2023-04-23T20:47:47.534Z,14.23
2023-04-23T20:50:14.482Z,14.13
2023-04-23T20:52:41.407Z,14.12
2023-04-23T20:55:09.115Z,14.12
2023-04-23T20:57:37.351Z,14.06
2023-04-23T21:00:11.294Z,13.97
2023-04-23T21:02:39.392Z,13.84
2023-04-23T21:05:10.560Z,13.75
2023-04-23T21:07:37.575Z,13.71
2023-04-23T21:10:05.875Z,13.64
2023-04-23T21:12:33.163Z,13.61
2023-04-23T21:15:00.206Z,13.59
2023-04-23T21:17:27.182Z,13.54
2023-04-23T21:19:54.565Z,13.44
2023-04-23T21:22:21.493Z,13.47
2023-04-23T21:24:48.376Z,13.44
2023-04-23T21:27:16.745Z,13.40
2023-04-23T21:29:45.574Z,13.28
2023-04-23T21:32:12.529Z,12.81
2023-04-23T21:34:39.371Z,12.75
2023-04-23T21:37:06.308Z,12.76
2023-04-23T21:39:33.286Z,12.77
2023-04-23T21:42:01.103Z,12.71
2023-04-23T21:44:30.899Z,12.32
2023-04-23T21:46:57.868Z,12.61
2023-04-23T21:49:24.822Z,12.39
2023-04-23T21:51:54.783Z,12.24
2023-04-23T21:54:22.108Z,12.28
2023-04-23T21:56:49.114Z,12.25
2023-04-23T21:59:16.339Z,12.11
2023-04-23T22:01:44.877Z,12.12
2023-04-23T22:04:15.376Z,12.12
2023-04-23T22:06:45.014Z,12.11
2023-04-23T22:09:14.210Z,12.09
2023-04-23T22:14:40.688Z,12.04
2023-04-23T22:17:10.652Z,12.02
2023-04-23T22:19:37.597Z,11.98
2023-04-23T22:22:04.573Z,11.94
2023-04-23T22:24:31.430Z,11.93
2023-04-23T22:26:59.288Z,11.92
2023-04-23T22:29:26.326Z,11.87
2023-04-23T22:31:53.238Z,11.78
2023-04-23T22:34:20.143Z,11.71
2023-04-23T22:36:47.078Z,11.52
2023-04-23T22:39:13.925Z,11.74
2023-04-23T22:41:40.880Z,11.75
2023-04-23T22:44:09.511Z,11.70
2023-04-23T22:46:36.600Z,11.65
2023-04-23T22:49:03.589Z,11.58
2023-04-23T22:51:33.657Z,11.53
2023-04-23T22:54:00.769Z,11.48
2023-04-23T22:56:27.795Z,11.43
2023-04-23T22:58:54.655Z,11.41
2023-04-23T23:01:21.638Z,11.40
2023-04-23T23:03:48.706Z,11.34
2023-04-23T23:06:16.981Z,11.25
2023-04-23T23:08:43.977Z,11.19
2023-04-23T23:11:11.050Z,11.15
2023-04-23T23:13:39.885Z,10.99
2023-04-23T23:16:07.408Z,10.74
2023-04-23T23:18:34.375Z,10.57
2023-04-23T23:21:01.346Z,10.58
2023-04-23T23:23:28.302Z,10.64
2023-04-23T23:25:56.165Z,10.69
2023-04-23T23:28:23.964Z,10.77
2023-04-23T23:30:50.984Z,10.78
2023-04-23T23:33:18.070Z,10.71
2023-04-23T23:35:45.106Z,10.41
2023-04-23T23:38:12.221Z,10.42
2023-04-23T23:40:39.104Z,10.42
2023-04-23T23:43:06.032Z,10.42
2023-04-23T23:45:33.015Z,10.37
2023-04-23T23:48:00.032Z,10.40
2023-04-23T23:50:27.231Z,10.37
2023-04-23T23:52:54.525Z,10.32
2023-04-23T23:55:21.643Z,10.38
2023-04-23T23:57:48.643Z,10.31
